createdAt,value
2024-02-08T00:03:56.883Z,5.30
2024-02-08T00:08:59.616Z,5.41
2024-02-08T00:14:02.447Z,5.36
2024-02-08T00:19:09.367Z,5.41
2024-02-08T00:24:13.130Z,5.03
2024-02-08T00:29:17.596Z,5.54
2024-02-08T00:34:21.867Z,5.42
2024-02-08T00:39:24.788Z,4.95
2024-02-08T00:44:28.958Z,5.19
2024-02-08T00:49:33.068Z,5.33
2024-02-08T00:54:36.534Z,5.25
2024-02-08T00:59:39.752Z,5.09
2024-02-08T01:04:50.123Z,5.22
2024-02-08T01:09:53.640Z,5.27
2024-02-08T01:14:56.403Z,5.23
2024-02-08T01:20:02.103Z,5.27
2024-02-08T01:25:05.938Z,5.06
2024-02-08T01:30:14.465Z,5.05
2024-02-08T01:35:23.119Z,4.28
2024-02-08T01:40:27.382Z,5.15
2024-02-08T01:45:34.270Z,4.96
2024-02-08T01:50:41.631Z,5.30
2024-02-08T01:55:51.195Z,5.34
2024-02-08T02:00:57.199Z,5.30
2024-02-08T02:06:01.788Z,5.00
2024-02-08T02:11:14.217Z,4.95
2024-02-08T02:16:17.647Z,5.34
2024-02-08T02:21:23.421Z,5.21
2024-02-08T02:26:27.272Z,5.18
2024-02-08T02:31:33.512Z,5.17
2024-02-08T02:36:37.674Z,5.16
2024-02-08T02:41:41.397Z,4.76
2024-02-08T02:46:44.884Z,5.23
2024-02-08T02:51:49.731Z,4.98
2024-02-08T02:56:52.844Z,5.00
2024-02-08T03:01:57.122Z,4.65
2024-02-08T03:07:01.278Z,5.09
2024-02-08T03:12:10.980Z,4.48
2024-02-08T03:17:13.984Z,5.08
2024-02-08T03:22:19.568Z,5.03
2024-02-08T03:27:25.697Z,5.03
2024-02-08T03:32:28.939Z,5.16
2024-02-08T03:37:33.269Z,5.23
2024-02-08T03:42:36.953Z,5.21
2024-02-08T03:47:40.635Z,4.99
2024-02-08T03:52:44.852Z,4.85
2024-02-08T03:57:50.269Z,4.89
2024-02-08T04:02:53.130Z,4.86
2024-02-08T04:08:00.760Z,5.25
2024-02-08T04:13:22.313Z,5.25
2024-02-08T04:19:03.182Z,5.11
2024-02-08T04:24:44.950Z,5.19
2024-02-08T04:30:05.223Z,5.20
2024-02-08T04:35:25.889Z,4.99
2024-02-08T04:40:53.223Z,5.34
2024-02-08T04:46:13.631Z,5.03
2024-02-08T04:51:34.076Z,5.24
2024-02-08T04:56:40.306Z,5.07
2024-02-08T05:01:43.104Z,5.20
2024-02-08T05:06:46.451Z,5.26
2024-02-08T05:12:07.220Z,5.28
2024-02-08T05:17:11.361Z,5.28
2024-02-08T05:22:15.591Z,5.07
2024-02-08T05:27:19.859Z,5.32
2024-02-08T05:32:23.753Z,5.23
2024-02-08T05:37:30.630Z,5.20
2024-02-08T05:42:37.554Z,5.23
2024-02-08T05:47:40.474Z,5.25
2024-02-08T05:52:46.628Z,4.94
2024-02-08T05:57:52.047Z,5.14
2024-02-08T06:02:55.339Z,5.09
2024-02-08T06:07:58.845Z,5.15
2024-02-08T06:13:02.987Z,5.09
2024-02-08T06:18:06.541Z,5.13
2024-02-08T06:23:20.267Z,4.86
2024-02-08T06:28:27.694Z,5.07
2024-02-08T06:33:33.301Z,5.23
2024-02-08T06:38:44.953Z,5.18
2024-02-08T06:44:08.996Z,5.16
2024-02-08T06:49:25.680Z,5.24
2024-02-08T06:54:46.327Z,5.31
2024-02-08T07:00:08.300Z,5.19
2024-02-08T07:05:29.960Z,5.41
2024-02-08T07:10:50.121Z,5.38
2024-02-08T07:16:12.406Z,5.41
2024-02-08T07:21:33.299Z,5.20
2024-02-08T07:26:53.442Z,5.40
2024-02-08T07:32:18.774Z,5.50
2024-02-08T07:37:26.427Z,4.78
2024-02-08T07:42:33.716Z,5.33
2024-02-08T07:47:38.380Z,5.19
2024-02-08T07:52:48.024Z,5.67
2024-02-08T07:57:58.903Z,5.73
2024-02-08T08:03:08.967Z,5.66
2024-02-08T08:08:25.834Z,5.63
2024-02-08T08:13:43.212Z,5.71
2024-02-08T08:18:47.349Z,5.78
2024-02-08T08:24:00.997Z,5.56
2024-02-08T08:29:05.749Z,5.54
2024-02-08T08:34:27.858Z,5.87
2024-02-08T08:40:09.698Z,5.90
2024-02-08T08:45:18.062Z,6.00
2024-02-08T08:50:22.749Z,6.01
2024-02-08T08:55:25.579Z,6.06
2024-02-08T09:00:34.266Z,6.03
2024-02-08T09:05:38.502Z,5.98
2024-02-08T09:10:42.990Z,5.69
2024-02-08T09:15:57.062Z,6.23
2024-02-08T09:21:01.436Z,6.13
2024-02-08T09:26:06.333Z,6.49
2024-02-08T09:31:15.310Z,6.06
2024-02-08T09:36:19.555Z,6.27
2024-02-08T09:41:26.576Z,6.49
2024-02-08T09:46:50.507Z,6.41
2024-02-08T09:51:57.665Z,6.45
2024-02-08T09:57:03.577Z,6.75
2024-02-08T10:02:21.602Z,6.86
2024-02-08T10:07:35.543Z,6.77
2024-02-08T10:12:52.259Z,7.01
2024-02-08T10:18:04.179Z,7.03
2024-02-08T10:23:34.628Z,7.05
2024-02-08T10:28:39.046Z,6.87
2024-02-08T10:33:49.268Z,6.98
2024-02-08T10:38:57.847Z,6.96
2024-02-08T10:44:06.119Z,6.90
2024-02-08T10:49:10.528Z,7.04
2024-02-08T10:54:24.044Z,7.08
2024-02-08T10:59:40.259Z,6.88
2024-02-08T11:04:43.964Z,7.00
2024-02-08T11:09:54.424Z,7.01
2024-02-08T11:15:02.660Z,5.81
2024-02-08T11:20:06.804Z,6.81
2024-02-08T11:25:21.965Z,6.68
2024-02-08T11:30:34.316Z,6.96
2024-02-08T11:35:46.534Z,6.92
2024-02-08T11:40:50.730Z,7.02
2024-02-08T11:45:55.738Z,7.01
2024-02-08T11:51:00.725Z,6.94
2024-02-08T11:56:09.876Z,6.88
2024-02-08T12:01:15.387Z,6.49
2024-02-08T12:06:24.256Z,7.03
2024-02-08T12:11:31.493Z,6.92
2024-02-08T12:16:34.565Z,6.74
2024-02-08T12:21:38.316Z,6.98
2024-02-08T12:26:42.781Z,7.04
2024-02-08T12:31:48.978Z,7.08
2024-02-08T12:36:51.838Z,7.17
2024-02-08T12:41:56.844Z,7.28
2024-02-08T12:47:00.047Z,7.13
2024-02-08T12:52:04.879Z,7.06
2024-02-08T12:57:11.778Z,7.00
2024-02-08T13:02:19.223Z,7.08
2024-02-08T13:07:26.604Z,7.24
2024-02-08T13:12:31.000Z,7.12
2024-02-08T13:17:35.210Z,6.94
2024-02-08T13:22:42.434Z,7.15
2024-02-08T13:27:51.371Z,6.90
2024-02-08T13:32:55.694Z,7.20
2024-02-08T13:37:59.995Z,7.24
2024-02-08T13:43:07.468Z,7.05
2024-02-08T13:48:28.973Z,5.00
2024-02-08T13:53:38.123Z,4.62
2024-02-08T13:59:17.146Z,4.77
2024-02-08T14:04:32.619Z,5.70
2024-02-08T14:09:50.238Z,6.06
2024-02-08T14:15:11.607Z,4.58
2024-02-08T14:20:30.649Z,6.90
2024-02-08T14:25:49.888Z,6.75
2024-02-08T14:30:53.955Z,7.01
2024-02-08T14:35:57.995Z,7.02
2024-02-08T14:41:00.900Z,7.28
2024-02-08T14:46:05.688Z,6.72
2024-02-08T14:51:28.614Z,7.16
2024-02-08T14:56:31.789Z,6.97
2024-02-08T15:01:39.870Z,7.18
2024-02-08T15:06:43.771Z,6.92
2024-02-08T15:11:59.196Z,6.90
2024-02-08T15:17:12.970Z,6.71
2024-02-08T15:22:42.485Z,7.14
2024-02-08T15:27:55.001Z,7.17
2024-02-08T15:33:19.444Z,7.03
2024-02-08T15:38:37.179Z,7.10
2024-02-08T15:43:41.540Z,7.05
2024-02-08T15:48:46.938Z,6.76
2024-02-08T15:53:51.336Z,6.89
2024-02-08T15:59:03.004Z,7.13
2024-02-08T16:04:27.399Z,7.07
2024-02-08T16:09:34.682Z,7.07
2024-02-08T16:14:43.171Z,7.01
2024-02-08T16:19:55.372Z,6.80
2024-02-08T16:25:04.218Z,7.07
2024-02-08T16:30:10.758Z,6.81
2024-02-08T16:35:34.030Z,6.96
2024-02-08T16:40:44.462Z,6.81
2024-02-08T16:45:49.596Z,6.96
2024-02-08T16:50:58.146Z,6.95
2024-02-08T16:56:06.826Z,6.99
2024-02-08T17:01:45.475Z,5.66
2024-02-08T17:06:59.947Z,6.83
2024-02-08T17:12:06.493Z,7.18
2024-02-08T17:17:23.009Z,7.13
2024-02-08T17:22:44.790Z,6.77
2024-02-08T17:28:15.672Z,6.98
2024-02-08T17:33:19.447Z,7.07
2024-02-08T17:38:29.769Z,7.12
2024-02-08T17:43:39.585Z,7.15
2024-02-08T17:48:47.878Z,7.17
2024-02-08T17:53:54.593Z,7.25
2024-02-08T17:58:59.197Z,7.34
2024-02-08T18:04:03.614Z,7.41
2024-02-08T18:09:17.699Z,7.08
2024-02-08T18:14:23.541Z,7.29
2024-02-08T18:19:33.576Z,7.34
2024-02-08T18:24:37.826Z,7.30
2024-02-08T18:29:45.793Z,7.39
2024-02-08T18:35:00.321Z,6.54
2024-02-08T18:40:11.310Z,5.18
2024-02-08T18:45:18.144Z,6.36
2024-02-08T18:50:25.749Z,7.80
2024-02-08T18:55:40.594Z,7.87
2024-02-08T19:00:47.630Z,7.95
2024-02-08T19:05:53.409Z,8.04
2024-02-08T19:11:00.046Z,8.13
2024-02-08T19:16:08.361Z,8.42
2024-02-08T19:21:15.919Z,8.48
2024-02-08T19:26:22.413Z,8.38
2024-02-08T19:31:28.102Z,8.65
2024-02-08T19:36:31.048Z,8.68
2024-02-08T19:41:35.074Z,9.01
2024-02-08T19:46:46.832Z,9.10
2024-02-08T19:52:00.494Z,9.47
2024-02-08T19:57:06.543Z,9.75
2024-02-08T20:02:18.120Z,9.97
2024-02-08T20:07:24.150Z,10.00
2024-02-08T20:12:28.287Z,10.20
2024-02-08T20:17:30.970Z,10.44
2024-02-08T20:22:34.216Z,10.06
2024-02-08T20:27:38.704Z,10.52
2024-02-08T20:32:41.347Z,10.71
2024-02-08T20:37:44.076Z,9.10
2024-02-08T20:42:51.976Z,10.80
2024-02-08T20:47:55.001Z,10.83
2024-02-08T20:52:59.143Z,10.70
2024-02-08T20:58:05.848Z,10.74
2024-02-08T21:03:12.361Z,10.81
2024-02-08T21:08:17.745Z,10.79
2024-02-08T21:13:23.244Z,10.49
2024-02-08T21:18:29.575Z,10.75
2024-02-08T21:23:34.997Z,10.65
2024-02-08T21:28:41.162Z,10.91
2024-02-08T21:33:43.966Z,10.78
2024-02-08T21:38:48.027Z,10.51
2024-02-08T21:43:52.112Z,10.44
2024-02-08T21:48:55.026Z,10.63
2024-02-08T21:53:57.899Z,10.77
2024-02-08T21:59:02.971Z,10.61
2024-02-08T22:04:06.211Z,10.69
2024-02-08T22:09:12.359Z,10.63
2024-02-08T22:14:18.561Z,10.68
2024-02-08T22:19:24.337Z,10.73
2024-02-08T22:24:27.287Z,10.74
2024-02-08T22:29:33.152Z,10.70
2024-02-08T22:34:36.289Z,10.64
2024-02-08T22:39:39.072Z,10.48
2024-02-08T22:44:43.535Z,10.39
2024-02-08T22:49:46.552Z,10.60
2024-02-08T22:54:51.344Z,10.55
2024-02-08T22:59:56.424Z,10.52
2024-02-08T23:05:00.275Z,10.41
2024-02-08T23:10:08.963Z,10.61
2024-02-08T23:15:18.834Z,10.44
2024-02-08T23:20:22.892Z,10.57
2024-02-08T23:25:25.892Z,10.61
2024-02-08T23:30:31.658Z,10.34
2024-02-08T23:35:35.209Z,10.56
2024-02-08T23:40:40.023Z,10.58
2024-02-08T23:45:44.456Z,10.56
2024-02-08T23:50:50.077Z,10.56
2024-02-08T23:55:58.075Z,10.49
